sensor_id;sensor_type;location;lat;lon;timestamp;P1;durP1;ratioP1;P2;durP2;ratioP2
46551;SDS011;32278;51.810;4.712;2023-07-31T00:01:46;38.15;;;10.43;;
46551;SDS011;32278;51.810;4.712;2023-07-31T00:04:12;34.60;;;9.90;;
46551;SDS011;32278;51.810;4.712;2023-07-31T00:06:38;39.20;;;10.85;;
46551;SDS011;32278;51.810;4.712;2023-07-31T00:09:04;30.00;;;10.85;;
46551;SDS011;32278;51.810;4.712;2023-07-31T00:11:30;37.83;;;10.13;;
46551;SDS011;32278;51.810;4.712;2023-07-31T00:13:56;35.33;;;10.75;;
46551;SDS011;32278;51.810;4.712;2023-07-31T00:16:22;32.40;;;8.65;;
46551;SDS011;32278;51.810;4.712;2023-07-31T00:18:48;32.45;;;9.80;;
46551;SDS011;32278;51.810;4.712;2023-07-31T00:21:14;31.63;;;8.60;;
46551;SDS011;32278;51.810;4.712;2023-07-31T00:23:40;30.23;;;9.30;;
46551;SDS011;32278;51.810;4.712;2023-07-31T00:26:06;28.55;;;9.55;;
46551;SDS011;32278;51.810;4.712;2023-07-31T00:28:32;31.80;;;8.48;;
46551;SDS011;32278;51.810;4.712;2023-07-31T00:30:58;29.98;;;10.18;;
46551;SDS011;32278;51.810;4.712;2023-07-31T00:33:24;28.20;;;9.52;;
46551;SDS011;32278;51.810;4.712;2023-07-31T00:35:49;32.17;;;8.57;;
46551;SDS011;32278;51.810;4.712;2023-07-31T00:38:15;29.60;;;8.07;;
46551;SDS011;32278;51.810;4.712;2023-07-31T00:40:41;38.85;;;10.48;;
46551;SDS011;32278;51.810;4.712;2023-07-31T00:43:07;25.45;;;9.60;;
46551;SDS011;32278;51.810;4.712;2023-07-31T00:45:34;37.00;;;10.02;;
46551;SDS011;32278;51.810;4.712;2023-07-31T00:48:00;34.88;;;9.30;;
46551;SDS011;32278;51.810;4.712;2023-07-31T00:50:26;37.60;;;9.50;;
46551;SDS011;32278;51.810;4.712;2023-07-31T00:52:52;32.10;;;8.52;;
46551;SDS011;32278;51.810;4.712;2023-07-31T00:55:18;27.15;;;8.27;;
46551;SDS011;32278;51.810;4.712;2023-07-31T00:57:46;46.25;;;10.48;;
46551;SDS011;32278;51.810;4.712;2023-07-31T01:00:12;39.40;;;10.50;;
46551;SDS011;32278;51.810;4.712;2023-07-31T01:02:38;40.45;;;9.98;;
46551;SDS011;32278;51.810;4.712;2023-07-31T01:05:04;30.90;;;9.65;;
46551;SDS011;32278;51.810;4.712;2023-07-31T01:07:35;30.02;;;9.18;;
46551;SDS011;32278;51.810;4.712;2023-07-31T01:10:10;38.15;;;10.77;;
46551;SDS011;32278;51.810;4.712;2023-07-31T01:12:36;38.90;;;10.07;;
46551;SDS011;32278;51.810;4.712;2023-07-31T01:15:04;28.80;;;9.00;;
46551;SDS011;32278;51.810;4.712;2023-07-31T01:17:30;26.83;;;8.43;;
46551;SDS011;32278;51.810;4.712;2023-07-31T01:19:57;31.10;;;9.95;;
46551;SDS011;32278;51.810;4.712;2023-07-31T01:22:49;19.55;;;8.00;;
46551;SDS011;32278;51.810;4.712;2023-07-31T01:27:39;28.52;;;8.68;;
46551;SDS011;32278;51.810;4.712;2023-07-31T01:30:11;29.20;;;9.57;;
46551;SDS011;32278;51.810;4.712;2023-07-31T01:32:42;29.10;;;8.35;;
46551;SDS011;32278;51.810;4.712;2023-07-31T01:35:08;24.48;;;8.32;;
46551;SDS011;32278;51.810;4.712;2023-07-31T01:37:35;19.20;;;6.50;;
46551;SDS011;32278;51.810;4.712;2023-07-31T01:40:01;28.50;;;8.02;;
46551;SDS011;32278;51.810;4.712;2023-07-31T01:42:27;32.63;;;8.75;;
46551;SDS011;32278;51.810;4.712;2023-07-31T01:44:53;32.28;;;8.48;;
46551;SDS011;32278;51.810;4.712;2023-07-31T01:47:19;29.55;;;8.38;;
46551;SDS011;32278;51.810;4.712;2023-07-31T01:49:45;26.25;;;8.00;;
46551;SDS011;32278;51.810;4.712;2023-07-31T01:52:11;27.40;;;8.40;;
46551;SDS011;32278;51.810;4.712;2023-07-31T01:54:37;24.90;;;7.25;;
46551;SDS011;32278;51.810;4.712;2023-07-31T01:57:03;30.67;;;8.90;;
46551;SDS011;32278;51.810;4.712;2023-07-31T01:59:29;22.20;;;8.43;;
46551;SDS011;32278;51.810;4.712;2023-07-31T02:01:55;26.77;;;8.95;;
46551;SDS011;32278;51.810;4.712;2023-07-31T02:04:21;32.17;;;9.40;;
46551;SDS011;32278;51.810;4.712;2023-07-31T02:06:46;27.60;;;9.18;;
46551;SDS011;32278;51.810;4.712;2023-07-31T02:09:12;29.35;;;8.80;;
46551;SDS011;32278;51.810;4.712;2023-07-31T02:11:38;31.00;;;8.75;;
46551;SDS011;32278;51.810;4.712;2023-07-31T02:14:04;33.10;;;9.45;;
46551;SDS011;32278;51.810;4.712;2023-07-31T02:16:30;27.02;;;8.77;;
46551;SDS011;32278;51.810;4.712;2023-07-31T02:18:56;38.10;;;10.05;;
46551;SDS011;32278;51.810;4.712;2023-07-31T02:21:22;35.00;;;9.93;;
46551;SDS011;32278;51.810;4.712;2023-07-31T02:23:48;34.35;;;9.18;;
46551;SDS011;32278;51.810;4.712;2023-07-31T02:26:14;32.53;;;9.18;;
46551;SDS011;32278;51.810;4.712;2023-07-31T02:28:40;24.48;;;8.30;;
46551;SDS011;32278;51.810;4.712;2023-07-31T02:31:08;31.95;;;8.18;;
46551;SDS011;32278;51.810;4.712;2023-07-31T02:33:34;23.00;;;8.43;;
46551;SDS011;32278;51.810;4.712;2023-07-31T02:36:00;26.83;;;9.18;;
46551;SDS011;32278;51.810;4.712;2023-07-31T02:38:26;30.75;;;9.40;;
46551;SDS011;32278;51.810;4.712;2023-07-31T02:40:52;21.35;;;7.75;;
46551;SDS011;32278;51.810;4.712;2023-07-31T02:43:18;25.23;;;9.02;;
46551;SDS011;32278;51.810;4.712;2023-07-31T02:45:44;26.20;;;9.02;;
46551;SDS011;32278;51.810;4.712;2023-07-31T02:48:10;26.42;;;7.65;;
46551;SDS011;32278;51.810;4.712;2023-07-31T02:50:36;28.27;;;8.98;;
46551;SDS011;32278;51.810;4.712;2023-07-31T02:53:02;25.15;;;8.77;;
46551;SDS011;32278;51.810;4.712;2023-07-31T02:55:28;17.80;;;7.13;;
46551;SDS011;32278;51.810;4.712;2023-07-31T02:57:54;26.73;;;8.35;;
46551;SDS011;32278;51.810;4.712;2023-07-31T03:00:20;25.83;;;8.05;;
46551;SDS011;32278;51.810;4.712;2023-07-31T03:02:46;26.75;;;8.07;;
46551;SDS011;32278;51.810;4.712;2023-07-31T03:05:12;32.53;;;9.05;;
46551;SDS011;32278;51.810;4.712;2023-07-31T03:07:38;19.98;;;8.07;;
46551;SDS011;32278;51.810;4.712;2023-07-31T03:10:04;22.80;;;7.93;;
46551;SDS011;32278;51.810;4.712;2023-07-31T03:12:30;35.10;;;9.23;;
46551;SDS011;32278;51.810;4.712;2023-07-31T03:14:56;25.90;;;8.10;;
46551;SDS011;32278;51.810;4.712;2023-07-31T03:17:22;23.92;;;7.95;;
46551;SDS011;32278;51.810;4.712;2023-07-31T03:19:48;26.27;;;7.93;;
46551;SDS011;32278;51.810;4.712;2023-07-31T03:22:14;23.55;;;7.35;;
46551;SDS011;32278;51.810;4.712;2023-07-31T03:24:40;27.80;;;7.80;;
46551;SDS011;32278;51.810;4.712;2023-07-31T03:27:06;23.33;;;7.95;;
46551;SDS011;32278;51.810;4.712;2023-07-31T03:29:32;23.83;;;8.20;;
46551;SDS011;32278;51.810;4.712;2023-07-31T03:31:58;24.65;;;7.28;;
46551;SDS011;32278;51.810;4.712;2023-07-31T03:34:25;25.85;;;8.60;;
46551;SDS011;32278;51.810;4.712;2023-07-31T03:36:51;23.58;;;7.43;;
46551;SDS011;32278;51.810;4.712;2023-07-31T03:39:18;18.75;;;6.78;;
46551;SDS011;32278;51.810;4.712;2023-07-31T03:41:44;27.45;;;8.30;;
46551;SDS011;32278;51.810;4.712;2023-07-31T03:44:10;27.23;;;7.85;;
46551;SDS011;32278;51.810;4.712;2023-07-31T03:46:36;28.38;;;8.07;;
46551;SDS011;32278;51.810;4.712;2023-07-31T03:49:02;25.92;;;8.07;;
46551;SDS011;32278;51.810;4.712;2023-07-31T03:51:28;22.73;;;7.43;;
46551;SDS011;32278;51.810;4.712;2023-07-31T03:53:54;21.80;;;7.10;;
46551;SDS011;32278;51.810;4.712;2023-07-31T03:56:20;22.55;;;8.00;;
46551;SDS011;32278;51.810;4.712;2023-07-31T03:58:46;24.92;;;7.07;;
46551;SDS011;32278;51.810;4.712;2023-07-31T04:01:12;19.83;;;6.50;;
46551;SDS011;32278;51.810;4.712;2023-07-31T04:03:38;20.95;;;6.50;;
46551;SDS011;32278;51.810;4.712;2023-07-31T04:06:04;19.77;;;7.25;;
46551;SDS011;32278;51.810;4.712;2023-07-31T04:08:32;19.08;;;7.10;;
46551;SDS011;32278;51.810;4.712;2023-07-31T04:10:58;22.58;;;6.22;;
46551;SDS011;32278;51.810;4.712;2023-07-31T04:13:24;23.25;;;6.55;;
46551;SDS011;32278;51.810;4.712;2023-07-31T04:15:52;21.45;;;6.82;;
46551;SDS011;32278;51.810;4.712;2023-07-31T04:18:19;16.33;;;6.38;;
46551;SDS011;32278;51.810;4.712;2023-07-31T04:20:45;15.48;;;6.00;;
46551;SDS011;32278;51.810;4.712;2023-07-31T04:23:11;21.02;;;5.55;;
46551;SDS011;32278;51.810;4.712;2023-07-31T04:25:37;19.73;;;6.88;;
46551;SDS011;32278;51.810;4.712;2023-07-31T04:28:03;22.45;;;7.53;;
46551;SDS011;32278;51.810;4.712;2023-07-31T04:30:29;15.43;;;6.88;;
46551;SDS011;32278;51.810;4.712;2023-07-31T04:32:55;21.40;;;6.95;;
46551;SDS011;32278;51.810;4.712;2023-07-31T04:35:21;18.45;;;6.70;;
46551;SDS011;32278;51.810;4.712;2023-07-31T04:37:47;22.45;;;6.50;;
46551;SDS011;32278;51.810;4.712;2023-07-31T04:40:14;22.73;;;6.95;;
46551;SDS011;32278;51.810;4.712;2023-07-31T04:42:40;22.25;;;6.90;;
46551;SDS011;32278;51.810;4.712;2023-07-31T04:45:07;25.00;;;6.85;;
46551;SDS011;32278;51.810;4.712;2023-07-31T04:47:33;29.10;;;7.60;;
46551;SDS011;32278;51.810;4.712;2023-07-31T04:49:59;24.50;;;7.30;;
46551;SDS011;32278;51.810;4.712;2023-07-31T04:52:25;33.78;;;8.90;;
46551;SDS011;32278;51.810;4.712;2023-07-31T04:54:51;31.75;;;7.55;;
46551;SDS011;32278;51.810;4.712;2023-07-31T04:57:17;24.10;;;7.25;;
46551;SDS011;32278;51.810;4.712;2023-07-31T04:59:43;23.67;;;6.85;;
46551;SDS011;32278;51.810;4.712;2023-07-31T05:02:11;18.00;;;6.75;;
46551;SDS011;32278;51.810;4.712;2023-07-31T05:04:38;23.30;;;6.97;;
46551;SDS011;32278;51.810;4.712;2023-07-31T05:07:04;19.60;;;7.35;;
46551;SDS011;32278;51.810;4.712;2023-07-31T05:09:30;16.60;;;6.80;;
46551;SDS011;32278;51.810;4.712;2023-07-31T05:11:56;21.50;;;6.72;;
46551;SDS011;32278;51.810;4.712;2023-07-31T05:14:22;24.02;;;6.60;;
46551;SDS011;32278;51.810;4.712;2023-07-31T05:16:48;17.25;;;6.55;;
46551;SDS011;32278;51.810;4.712;2023-07-31T05:19:14;17.95;;;7.15;;
46551;SDS011;32278;51.810;4.712;2023-07-31T05:21:40;17.25;;;6.57;;
46551;SDS011;32278;51.810;4.712;2023-07-31T05:24:06;21.55;;;6.80;;
46551;SDS011;32278;51.810;4.712;2023-07-31T05:26:32;24.48;;;7.30;;
46551;SDS011;32278;51.810;4.712;2023-07-31T05:28:58;15.82;;;5.85;;
46551;SDS011;32278;51.810;4.712;2023-07-31T05:31:24;18.17;;;5.88;;
46551;SDS011;32278;51.810;4.712;2023-07-31T05:33:50;16.27;;;5.53;;
46551;SDS011;32278;51.810;4.712;2023-07-31T05:36:16;15.45;;;5.60;;
46551;SDS011;32278;51.810;4.712;2023-07-31T05:38:43;19.45;;;6.28;;
46551;SDS011;32278;51.810;4.712;2023-07-31T05:41:09;13.55;;;5.78;;
46551;SDS011;32278;51.810;4.712;2023-07-31T05:43:36;18.48;;;5.40;;
46551;SDS011;32278;51.810;4.712;2023-07-31T05:46:02;15.63;;;6.32;;
46551;SDS011;32278;51.810;4.712;2023-07-31T05:48:28;13.77;;;5.80;;
46551;SDS011;32278;51.810;4.712;2023-07-31T05:50:54;14.43;;;5.88;;
46551;SDS011;32278;51.810;4.712;2023-07-31T05:53:20;16.75;;;6.40;;
46551;SDS011;32278;51.810;4.712;2023-07-31T05:55:46;13.43;;;5.93;;
46551;SDS011;32278;51.810;4.712;2023-07-31T05:58:12;16.98;;;6.72;;
46551;SDS011;32278;51.810;4.712;2023-07-31T06:00:38;18.13;;;6.20;;
46551;SDS011;32278;51.810;4.712;2023-07-31T06:03:06;11.95;;;5.57;;
46551;SDS011;32278;51.810;4.712;2023-07-31T06:05:31;17.23;;;6.88;;
46551;SDS011;32278;51.810;4.712;2023-07-31T06:07:57;25.48;;;6.68;;
46551;SDS011;32278;51.810;4.712;2023-07-31T06:10:24;13.68;;;6.25;;
46551;SDS011;32278;51.810;4.712;2023-07-31T06:12:50;25.00;;;7.78;;
46551;SDS011;32278;51.810;4.712;2023-07-31T06:15:16;19.98;;;7.57;;
46551;SDS011;32278;51.810;4.712;2023-07-31T06:17:44;15.32;;;6.38;;
46551;SDS011;32278;51.810;4.712;2023-07-31T06:20:10;19.42;;;6.95;;
46551;SDS011;32278;51.810;4.712;2023-07-31T06:22:36;18.85;;;7.25;;
46551;SDS011;32278;51.810;4.712;2023-07-31T06:25:02;20.05;;;6.57;;
46551;SDS011;32278;51.810;4.712;2023-07-31T06:27:28;17.73;;;6.00;;
46551;SDS011;32278;51.810;4.712;2023-07-31T06:29:54;17.58;;;6.95;;
46551;SDS011;32278;51.810;4.712;2023-07-31T06:32:20;17.75;;;6.32;;
46551;SDS011;32278;51.810;4.712;2023-07-31T06:34:46;17.05;;;6.90;;
46551;SDS011;32278;51.810;4.712;2023-07-31T06:37:12;17.73;;;6.45;;
46551;SDS011;32278;51.810;4.712;2023-07-31T06:39:38;16.90;;;6.40;;
46551;SDS011;32278;51.810;4.712;2023-07-31T06:42:04;14.80;;;6.20;;
46551;SDS011;32278;51.810;4.712;2023-07-31T06:44:30;12.20;;;5.93;;
46551;SDS011;32278;51.810;4.712;2023-07-31T06:46:56;14.60;;;6.35;;
46551;SDS011;32278;51.810;4.712;2023-07-31T06:49:22;16.38;;;5.72;;
46551;SDS011;32278;51.810;4.712;2023-07-31T06:51:48;14.38;;;5.85;;
46551;SDS011;32278;51.810;4.712;2023-07-31T06:54:14;12.02;;;5.32;;
46551;SDS011;32278;51.810;4.712;2023-07-31T06:56:40;12.25;;;5.55;;
46551;SDS011;32278;51.810;4.712;2023-07-31T06:59:06;9.25;;;4.93;;
46551;SDS011;32278;51.810;4.712;2023-07-31T07:01:32;17.92;;;5.32;;
46551;SDS011;32278;51.810;4.712;2023-07-31T07:03:58;11.70;;;5.10;;
46551;SDS011;32278;51.810;4.712;2023-07-31T07:06:23;6.80;;;3.90;;
46551;SDS011;32278;51.810;4.712;2023-07-31T07:08:49;9.95;;;5.10;;
46551;SDS011;32278;51.810;4.712;2023-07-31T07:11:15;8.70;;;4.00;;
46551;SDS011;32278;51.810;4.712;2023-07-31T07:13:41;7.18;;;3.88;;
46551;SDS011;32278;51.810;4.712;2023-07-31T07:16:07;6.65;;;3.45;;
46551;SDS011;32278;51.810;4.712;2023-07-31T07:18:35;10.45;;;4.13;;
46551;SDS011;32278;51.810;4.712;2023-07-31T07:21:01;7.10;;;3.70;;
46551;SDS011;32278;51.810;4.712;2023-07-31T07:23:27;7.95;;;3.50;;
46551;SDS011;32278;51.810;4.712;2023-07-31T07:25:53;10.43;;;3.58;;
46551;SDS011;32278;51.810;4.712;2023-07-31T07:28:19;10.23;;;4.15;;
46551;SDS011;32278;51.810;4.712;2023-07-31T07:30:50;9.35;;;3.83;;
46551;SDS011;32278;51.810;4.712;2023-07-31T07:33:17;9.85;;;4.05;;
46551;SDS011;32278;51.810;4.712;2023-07-31T07:35:43;5.82;;;3.40;;
46551;SDS011;32278;51.810;4.712;2023-07-31T07:38:09;4.60;;;3.45;;
46551;SDS011;32278;51.810;4.712;2023-07-31T07:40:38;8.73;;;3.63;;
46551;SDS011;32278;51.810;4.712;2023-07-31T07:43:05;4.25;;;3.20;;
46551;SDS011;32278;51.810;4.712;2023-07-31T07:45:31;6.07;;;3.55;;
46551;SDS011;32278;51.810;4.712;2023-07-31T07:47:57;4.65;;;2.95;;
46551;SDS011;32278;51.810;4.712;2023-07-31T07:50:24;6.75;;;3.90;;
46551;SDS011;32278;51.810;4.712;2023-07-31T07:52:50;6.00;;;3.80;;
46551;SDS011;32278;51.810;4.712;2023-07-31T07:55:16;8.27;;;3.38;;
46551;SDS011;32278;51.810;4.712;2023-07-31T07:57:42;11.18;;;3.58;;
46551;SDS011;32278;51.810;4.712;2023-07-31T08:00:09;7.15;;;3.42;;
46551;SDS011;32278;51.810;4.712;2023-07-31T08:02:35;12.27;;;3.63;;
46551;SDS011;32278;51.810;4.712;2023-07-31T08:05:02;6.47;;;3.60;;
46551;SDS011;32278;51.810;4.712;2023-07-31T08:07:28;7.03;;;3.80;;
46551;SDS011;32278;51.810;4.712;2023-07-31T08:09:54;7.15;;;4.03;;
46551;SDS011;32278;51.810;4.712;2023-07-31T08:12:20;6.05;;;3.78;;
46551;SDS011;32278;51.810;4.712;2023-07-31T08:14:46;5.78;;;3.63;;
46551;SDS011;32278;51.810;4.712;2023-07-31T08:17:12;8.98;;;3.53;;
46551;SDS011;32278;51.810;4.712;2023-07-31T08:19:38;6.28;;;3.88;;
46551;SDS011;32278;51.810;4.712;2023-07-31T08:22:04;5.90;;;3.75;;
46551;SDS011;32278;51.810;4.712;2023-07-31T08:24:29;6.15;;;3.97;;
46551;SDS011;32278;51.810;4.712;2023-07-31T08:26:55;9.52;;;3.97;;
46551;SDS011;32278;51.810;4.712;2023-07-31T08:29:21;8.38;;;3.83;;
46551;SDS011;32278;51.810;4.712;2023-07-31T08:31:47;5.88;;;4.20;;
46551;SDS011;32278;51.810;4.712;2023-07-31T08:34:13;8.10;;;3.90;;
46551;SDS011;32278;51.810;4.712;2023-07-31T08:36:39;9.13;;;4.88;;
46551;SDS011;32278;51.810;4.712;2023-07-31T08:39:05;6.10;;;3.47;;
46551;SDS011;32278;51.810;4.712;2023-07-31T08:41:31;11.23;;;4.10;;
46551;SDS011;32278;51.810;4.712;2023-07-31T08:43:57;7.70;;;4.15;;
46551;SDS011;32278;51.810;4.712;2023-07-31T08:46:24;9.20;;;5.25;;
46551;SDS011;32278;51.810;4.712;2023-07-31T08:48:50;11.57;;;4.60;;
46551;SDS011;32278;51.810;4.712;2023-07-31T08:51:17;10.45;;;5.47;;
46551;SDS011;32278;51.810;4.712;2023-07-31T08:53:43;11.98;;;5.30;;
46551;SDS011;32278;51.810;4.712;2023-07-31T08:56:10;10.73;;;5.20;;
46551;SDS011;32278;51.810;4.712;2023-07-31T08:58:37;8.88;;;4.63;;
46551;SDS011;32278;51.810;4.712;2023-07-31T09:01:04;7.25;;;5.20;;
46551;SDS011;32278;51.810;4.712;2023-07-31T09:03:33;10.00;;;4.68;;
46551;SDS011;32278;51.810;4.712;2023-07-31T09:05:59;9.52;;;5.25;;
46551;SDS011;32278;51.810;4.712;2023-07-31T09:08:26;10.73;;;5.25;;
46551;SDS011;32278;51.810;4.712;2023-07-31T09:10:58;8.85;;;4.78;;
46551;SDS011;32278;51.810;4.712;2023-07-31T09:13:24;10.77;;;5.82;;
46551;SDS011;32278;51.810;4.712;2023-07-31T09:15:51;8.38;;;4.80;;
46551;SDS011;32278;51.810;4.712;2023-07-31T09:18:17;9.98;;;5.20;;
46551;SDS011;32278;51.810;4.712;2023-07-31T09:20:45;8.40;;;5.35;;
46551;SDS011;32278;51.810;4.712;2023-07-31T09:23:11;9.20;;;4.88;;
46551;SDS011;32278;51.810;4.712;2023-07-31T09:25:38;8.40;;;4.97;;
46551;SDS011;32278;51.810;4.712;2023-07-31T09:28:05;8.63;;;4.60;;
46551;SDS011;32278;51.810;4.712;2023-07-31T09:30:32;8.32;;;5.20;;
46551;SDS011;32278;51.810;4.712;2023-07-31T09:33:09;9.10;;;4.90;;
46551;SDS011;32278;51.810;4.712;2023-07-31T09:35:35;6.85;;;4.53;;
46551;SDS011;32278;51.810;4.712;2023-07-31T09:38:09;7.50;;;4.43;;
46551;SDS011;32278;51.810;4.712;2023-07-31T09:40:39;9.15;;;4.32;;
46551;SDS011;32278;51.810;4.712;2023-07-31T09:43:12;7.78;;;3.90;;
46551;SDS011;32278;51.810;4.712;2023-07-31T09:45:39;11.10;;;4.55;;
46551;SDS011;32278;51.810;4.712;2023-07-31T09:48:09;7.35;;;4.70;;
46551;SDS011;32278;51.810;4.712;2023-07-31T09:50:39;5.60;;;3.95;;
46551;SDS011;32278;51.810;4.712;2023-07-31T09:53:06;5.57;;;3.90;;
46551;SDS011;32278;51.810;4.712;2023-07-31T09:55:32;6.43;;;3.95;;
46551;SDS011;32278;51.810;4.712;2023-07-31T09:57:58;5.22;;;4.10;;
46551;SDS011;32278;51.810;4.712;2023-07-31T10:00:25;9.13;;;4.03;;
46551;SDS011;32278;51.810;4.712;2023-07-31T10:02:53;5.55;;;3.80;;
46551;SDS011;32278;51.810;4.712;2023-07-31T10:05:20;8.52;;;4.20;;
46551;SDS011;32278;51.810;4.712;2023-07-31T10:07:55;5.45;;;3.63;;
46551;SDS011;32278;51.810;4.712;2023-07-31T10:10:22;5.35;;;3.78;;
46551;SDS011;32278;51.810;4.712;2023-07-31T10:12:48;7.28;;;3.90;;
46551;SDS011;32278;51.810;4.712;2023-07-31T10:15:15;4.97;;;3.58;;
46551;SDS011;32278;51.810;4.712;2023-07-31T10:17:41;9.20;;;3.80;;
46551;SDS011;32278;51.810;4.712;2023-07-31T10:20:07;5.63;;;4.07;;
46551;SDS011;32278;51.810;4.712;2023-07-31T10:22:34;6.10;;;4.05;;
46551;SDS011;32278;51.810;4.712;2023-07-31T10:25:00;11.23;;;4.85;;
46551;SDS011;32278;51.810;4.712;2023-07-31T10:27:26;6.38;;;4.20;;
46551;SDS011;32278;51.810;4.712;2023-07-31T10:29:53;6.82;;;4.30;;
46551;SDS011;32278;51.810;4.712;2023-07-31T10:32:20;5.50;;;4.07;;
46551;SDS011;32278;51.810;4.712;2023-07-31T10:34:46;7.13;;;4.10;;
46551;SDS011;32278;51.810;4.712;2023-07-31T10:39:54;8.65;;;4.47;;
46551;SDS011;32278;51.810;4.712;2023-07-31T10:42:20;6.97;;;4.25;;
46551;SDS011;32278;51.810;4.712;2023-07-31T10:44:55;10.05;;;4.55;;
46551;SDS011;32278;51.810;4.712;2023-07-31T10:47:22;14.88;;;6.18;;
46551;SDS011;32278;51.810;4.712;2023-07-31T10:49:48;7.93;;;4.82;;
46551;SDS011;32278;51.810;4.712;2023-07-31T10:52:15;6.03;;;4.82;;
46551;SDS011;32278;51.810;4.712;2023-07-31T10:54:47;8.38;;;4.70;;
46551;SDS011;32278;51.810;4.712;2023-07-31T10:57:20;6.55;;;4.30;;
46551;SDS011;32278;51.810;4.712;2023-07-31T10:59:47;9.38;;;4.82;;
46551;SDS011;32278;51.810;4.712;2023-07-31T11:02:26;7.47;;;4.68;;
46551;SDS011;32278;51.810;4.712;2023-07-31T11:05:10;6.90;;;4.00;;
46551;SDS011;32278;51.810;4.712;2023-07-31T11:07:46;8.67;;;4.30;;
46551;SDS011;32278;51.810;4.712;2023-07-31T11:10:12;5.47;;;3.83;;
46551;SDS011;32278;51.810;4.712;2023-07-31T11:12:41;5.68;;;3.70;;
46551;SDS011;32278;51.810;4.712;2023-07-31T11:15:07;7.25;;;3.83;;
46551;SDS011;32278;51.810;4.712;2023-07-31T11:17:38;4.60;;;3.60;;
46551;SDS011;32278;51.810;4.712;2023-07-31T11:20:04;5.45;;;3.17;;
46551;SDS011;32278;51.810;4.712;2023-07-31T11:22:30;3.33;;;2.80;;
46551;SDS011;32278;51.810;4.712;2023-07-31T11:24:56;5.90;;;3.13;;
46551;SDS011;32278;51.810;4.712;2023-07-31T11:27:22;3.88;;;3.42;;
46551;SDS011;32278;51.810;4.712;2023-07-31T11:29:50;5.05;;;3.50;;
46551;SDS011;32278;51.810;4.712;2023-07-31T11:32:16;4.35;;;3.90;;
46551;SDS011;32278;51.810;4.712;2023-07-31T11:34:52;7.15;;;3.97;;
46551;SDS011;32278;51.810;4.712;2023-07-31T11:37:18;6.43;;;4.38;;
46551;SDS011;32278;51.810;4.712;2023-07-31T11:39:58;6.25;;;4.38;;
46551;SDS011;32278;51.810;4.712;2023-07-31T11:42:24;6.38;;;4.28;;
46551;SDS011;32278;51.810;4.712;2023-07-31T11:44:50;5.32;;;4.30;;
46551;SDS011;32278;51.810;4.712;2023-07-31T11:47:16;4.38;;;3.75;;
46551;SDS011;32278;51.810;4.712;2023-07-31T11:49:43;6.38;;;3.63;;
46551;SDS011;32278;51.810;4.712;2023-07-31T11:52:09;5.05;;;3.92;;
46551;SDS011;32278;51.810;4.712;2023-07-31T11:54:36;7.15;;;4.20;;
46551;SDS011;32278;51.810;4.712;2023-07-31T11:57:02;6.28;;;3.95;;
46551;SDS011;32278;51.810;4.712;2023-07-31T11:59:29;5.57;;;4.00;;
46551;SDS011;32278;51.810;4.712;2023-07-31T12:01:55;4.57;;;3.50;;
46551;SDS011;32278;51.810;4.712;2023-07-31T12:04:21;7.20;;;3.80;;
46551;SDS011;32278;51.810;4.712;2023-07-31T12:06:47;5.07;;;3.30;;
46551;SDS011;32278;51.810;4.712;2023-07-31T12:09:16;11.35;;;4.68;;
46551;SDS011;32278;51.810;4.712;2023-07-31T12:11:42;6.50;;;4.03;;
46551;SDS011;32278;51.810;4.712;2023-07-31T12:14:19;6.13;;;3.80;;
46551;SDS011;32278;51.810;4.712;2023-07-31T12:16:45;5.40;;;4.10;;
46551;SDS011;32278;51.810;4.712;2023-07-31T12:19:11;7.97;;;4.25;;
46551;SDS011;32278;51.810;4.712;2023-07-31T12:21:37;6.72;;;3.90;;
46551;SDS011;32278;51.810;4.712;2023-07-31T12:24:03;5.82;;;3.78;;
46551;SDS011;32278;51.810;4.712;2023-07-31T12:26:35;5.43;;;3.75;;
46551;SDS011;32278;51.810;4.712;2023-07-31T12:29:01;5.28;;;3.47;;
46551;SDS011;32278;51.810;4.712;2023-07-31T12:31:28;7.18;;;4.07;;
46551;SDS011;32278;51.810;4.712;2023-07-31T12:33:54;5.90;;;4.25;;
46551;SDS011;32278;51.810;4.712;2023-07-31T12:36:22;6.13;;;3.92;;
46551;SDS011;32278;51.810;4.712;2023-07-31T12:38:48;6.50;;;4.38;;
46551;SDS011;32278;51.810;4.712;2023-07-31T12:41:15;6.72;;;4.60;;
46551;SDS011;32278;51.810;4.712;2023-07-31T12:43:41;5.07;;;4.18;;
46551;SDS011;32278;51.810;4.712;2023-07-31T12:46:07;7.10;;;4.57;;
46551;SDS011;32278;51.810;4.712;2023-07-31T12:48:34;7.78;;;4.53;;
46551;SDS011;32278;51.810;4.712;2023-07-31T12:51:00;7.28;;;5.05;;
46551;SDS011;32278;51.810;4.712;2023-07-31T12:53:26;7.90;;;5.10;;
46551;SDS011;32278;51.810;4.712;2023-07-31T12:55:52;5.90;;;5.18;;
46551;SDS011;32278;51.810;4.712;2023-07-31T12:58:18;12.20;;;6.47;;
46551;SDS011;32278;51.810;4.712;2023-07-31T13:00:44;8.93;;;5.80;;
46551;SDS011;32278;51.810;4.712;2023-07-31T13:03:10;11.02;;;6.20;;
46551;SDS011;32278;51.810;4.712;2023-07-31T13:05:36;10.38;;;6.88;;
46551;SDS011;32278;51.810;4.712;2023-07-31T13:08:02;10.77;;;6.70;;
46551;SDS011;32278;51.810;4.712;2023-07-31T13:10:28;8.50;;;6.30;;
46551;SDS011;32278;51.810;4.712;2023-07-31T13:12:54;10.00;;;5.85;;
46551;SDS011;32278;51.810;4.712;2023-07-31T13:15:20;11.27;;;6.32;;
46551;SDS011;32278;51.810;4.712;2023-07-31T13:17:46;9.50;;;6.63;;
46551;SDS011;32278;51.810;4.712;2023-07-31T13:20:12;10.60;;;6.35;;
46551;SDS011;32278;51.810;4.712;2023-07-31T13:22:38;9.80;;;6.20;;
46551;SDS011;32278;51.810;4.712;2023-07-31T13:25:05;13.48;;;8.93;;
46551;SDS011;32278;51.810;4.712;2023-07-31T13:27:31;15.75;;;10.93;;
46551;SDS011;32278;51.810;4.712;2023-07-31T13:29:57;19.05;;;12.73;;
46551;SDS011;32278;51.810;4.712;2023-07-31T13:32:23;16.95;;;12.70;;
46551;SDS011;32278;51.810;4.712;2023-07-31T13:34:49;17.50;;;11.95;;
46551;SDS011;32278;51.810;4.712;2023-07-31T13:37:15;16.58;;;10.32;;
46551;SDS011;32278;51.810;4.712;2023-07-31T13:39:41;13.13;;;8.15;;
46551;SDS011;32278;51.810;4.712;2023-07-31T13:42:07;11.00;;;8.75;;
46551;SDS011;32278;51.810;4.712;2023-07-31T13:44:36;13.63;;;8.02;;
46551;SDS011;32278;51.810;4.712;2023-07-31T13:47:02;13.52;;;8.02;;
46551;SDS011;32278;51.810;4.712;2023-07-31T13:49:29;12.57;;;7.85;;
46551;SDS011;32278;51.810;4.712;2023-07-31T13:51:55;19.15;;;8.50;;
46551;SDS011;32278;51.810;4.712;2023-07-31T13:54:24;10.70;;;7.95;;
46551;SDS011;32278;51.810;4.712;2023-07-31T13:56:51;12.32;;;8.27;;
46551;SDS011;32278;51.810;4.712;2023-07-31T13:59:17;10.70;;;7.90;;
46551;SDS011;32278;51.810;4.712;2023-07-31T14:01:43;12.05;;;7.78;;
46551;SDS011;32278;51.810;4.712;2023-07-31T14:04:09;15.45;;;8.95;;
46551;SDS011;32278;51.810;4.712;2023-07-31T14:06:35;20.33;;;10.07;;
46551;SDS011;32278;51.810;4.712;2023-07-31T14:09:01;16.23;;;10.23;;
46551;SDS011;32278;51.810;4.712;2023-07-31T14:11:28;14.27;;;11.35;;
46551;SDS011;32278;51.810;4.712;2023-07-31T14:13:54;16.33;;;11.68;;
46551;SDS011;32278;51.810;4.712;2023-07-31T14:16:21;17.42;;;11.45;;
46551;SDS011;32278;51.810;4.712;2023-07-31T14:18:47;11.50;;;8.98;;
46551;SDS011;32278;51.810;4.712;2023-07-31T14:21:13;16.65;;;10.02;;
46551;SDS011;32278;51.810;4.712;2023-07-31T14:23:40;15.50;;;9.70;;
46551;SDS011;32278;51.810;4.712;2023-07-31T14:26:06;12.55;;;8.43;;
46551;SDS011;32278;51.810;4.712;2023-07-31T14:28:32;11.43;;;8.60;;
46551;SDS011;32278;51.810;4.712;2023-07-31T14:30:58;15.30;;;9.73;;
46551;SDS011;32278;51.810;4.712;2023-07-31T14:33:24;14.05;;;9.65;;
46551;SDS011;32278;51.810;4.712;2023-07-31T14:35:50;11.15;;;7.43;;
46551;SDS011;32278;51.810;4.712;2023-07-31T14:38:16;8.55;;;6.32;;
46551;SDS011;32278;51.810;4.712;2023-07-31T14:40:42;8.35;;;5.93;;